sensor_id;sensor_type;location;lat;lon;timestamp;pressure;altitude;pressure_sealevel;temperature;humidity
48386;BME280;34644;47.964;7.982;2023-02-22T00:00:41;96507.66;;;17.24;56.39
48386;BME280;34644;47.964;7.982;2023-02-22T00:07:42;96504.44;;;17.22;56.46
48386;BME280;34644;47.964;7.982;2023-02-22T00:14:43;96498.91;;;17.18;56.47
48386;BME280;34644;47.964;7.982;2023-02-22T00:21:43;96496.78;;;17.15;56.48
48386;BME280;34644;47.964;7.982;2023-02-22T00:28:45;96493.09;;;17.11;56.51
48386;BME280;34644;47.964;7.982;2023-02-22T00:35:46;96488.31;;;17.08;56.47
48386;BME280;34644;47.964;7.982;2023-02-22T00:42:46;96487.78;;;17.06;56.59
48386;BME280;34644;47.964;7.982;2023-02-22T00:49:46;96478.78;;;17.02;56.53
48386;BME280;34644;47.964;7.982;2023-02-22T00:56:48;96479.84;;;17.00;56.55
48386;BME280;34644;47.964;7.982;2023-02-22T01:03:49;96467.38;;;16.96;56.66
48386;BME280;34644;47.964;7.982;2023-02-22T01:10:50;96457.78;;;16.95;56.67
48386;BME280;34644;47.964;7.982;2023-02-22T01:17:52;96463.38;;;16.93;56.46
48386;BME280;34644;47.964;7.982;2023-02-22T01:24:53;96454.13;;;16.91;56.58
48386;BME280;34644;47.964;7.982;2023-02-22T01:31:54;96451.72;;;16.89;56.55
48386;BME280;34644;47.964;7.982;2023-02-22T01:38:55;96453.06;;;16.87;56.56
48386;BME280;34644;47.964;7.982;2023-02-22T01:45:57;96439.75;;;16.87;56.57
48386;BME280;34644;47.964;7.982;2023-02-22T01:52:58;96429.63;;;16.83;56.46
48386;BME280;34644;47.964;7.982;2023-02-22T02:00:00;96425.13;;;16.84;56.38
48386;BME280;34644;47.964;7.982;2023-02-22T02:07:02;96423.81;;;16.81;56.40
48386;BME280;34644;47.964;7.982;2023-02-22T02:14:05;96421.41;;;16.80;56.40
48386;BME280;34644;47.964;7.982;2023-02-22T02:28:16;96405.50;;;16.75;56.58
48386;BME280;34644;47.964;7.982;2023-02-22T02:42:21;96395.91;;;16.74;56.41
48386;BME280;34644;47.964;7.982;2023-02-22T02:49:45;96400.72;;;16.72;56.45
48386;BME280;34644;47.964;7.982;2023-02-22T02:56:47;96396.47;;;16.71;56.46
48386;BME280;34644;47.964;7.982;2023-02-22T03:03:55;96392.22;;;16.70;56.44
48386;BME280;34644;47.964;7.982;2023-02-22T03:18:13;96386.66;;;16.66;56.55
48386;BME280;34644;47.964;7.982;2023-02-22T03:25:19;96387.72;;;16.65;56.46
48386;BME280;34644;47.964;7.982;2023-02-22T03:32:22;96389.09;;;16.62;56.48
48386;BME280;34644;47.964;7.982;2023-02-22T03:39:24;96386.69;;;16.61;56.56
48386;BME280;34644;47.964;7.982;2023-02-22T03:46:30;96387.75;;;16.60;56.55
48386;BME280;34644;47.964;7.982;2023-02-22T03:53:32;96376.59;;;16.58;56.54
48386;BME280;34644;47.964;7.982;2023-02-22T04:00:33;96379.53;;;16.56;56.46
48386;BME280;34644;47.964;7.982;2023-02-22T04:07:34;96375.56;;;16.54;56.55
48386;BME280;34644;47.964;7.982;2023-02-22T04:14:34;96379.81;;;16.55;56.61
48386;BME280;34644;47.964;7.982;2023-02-22T04:21:35;96380.38;;;16.52;56.72
48386;BME280;34644;47.964;7.982;2023-02-22T04:28:36;96369.22;;;16.50;56.48
48386;BME280;34644;47.964;7.982;2023-02-22T04:35:45;96371.88;;;16.50;56.60
48386;BME280;34644;47.964;7.982;2023-02-22T04:42:46;96357.78;;;16.49;56.50
48386;BME280;34644;47.964;7.982;2023-02-22T04:49:47;96357.50;;;16.51;56.78
48386;BME280;34644;47.964;7.982;2023-02-22T04:56:47;96351.84;;;16.62;56.49
48386;BME280;34644;47.964;7.982;2023-02-22T05:03:47;96349.78;;;16.83;56.18
48386;BME280;34644;47.964;7.982;2023-02-22T05:10:48;96340.81;;;17.09;55.71
48386;BME280;34644;47.964;7.982;2023-02-22T05:17:48;96343.41;;;17.14;55.67
48386;BME280;34644;47.964;7.982;2023-02-22T05:24:48;96330.91;;;17.14;55.65
48386;BME280;34644;47.964;7.982;2023-02-22T05:31:51;96326.41;;;16.46;49.01
48386;BME280;34644;47.964;7.982;2023-02-22T05:38:51;96319.06;;;16.33;48.56
48386;BME280;34644;47.964;7.982;2023-02-22T05:45:51;96323.44;;;16.18;47.48
48386;BME280;34644;47.964;7.982;2023-02-22T05:52:52;96325.63;;;15.46;42.35
48386;BME280;34644;47.964;7.982;2023-02-22T05:59:53;96323.88;;;14.38;40.57
48386;BME280;34644;47.964;7.982;2023-02-22T06:06:53;96327.47;;;15.40;43.29
48386;BME280;34644;47.964;7.982;2023-02-22T06:13:53;96327.34;;;15.76;45.13
48386;BME280;34644;47.964;7.982;2023-02-22T06:20:53;96326.53;;;15.91;46.95
48386;BME280;34644;47.964;7.982;2023-02-22T06:27:54;96337.06;;;16.01;47.89
48386;BME280;34644;47.964;7.982;2023-02-22T06:34:54;96339.19;;;16.04;48.64
48386;BME280;34644;47.964;7.982;2023-02-22T06:41:54;96345.84;;;16.07;49.50
48386;BME280;34644;47.964;7.982;2023-02-22T06:48:56;96347.41;;;16.08;49.88
48386;BME280;34644;47.964;7.982;2023-02-22T06:55:58;96350.88;;;16.08;50.35
48386;BME280;34644;47.964;7.982;2023-02-22T07:02:59;96348.72;;;16.10;50.82
48386;BME280;34644;47.964;7.982;2023-02-22T07:09:59;96351.91;;;16.13;51.09
48386;BME280;34644;47.964;7.982;2023-02-22T07:17:01;96359.31;;;16.21;51.28
48386;BME280;34644;47.964;7.982;2023-02-22T07:24:02;96368.50;;;16.39;51.12
48386;BME280;34644;47.964;7.982;2023-02-22T07:31:02;96366.91;;;16.38;51.39
48386;BME280;34644;47.964;7.982;2023-02-22T07:38:05;96359.47;;;16.40;51.64
48386;BME280;34644;47.964;7.982;2023-02-22T07:45:07;96355.16;;;16.44;51.82
48386;BME280;34644;47.964;7.982;2023-02-22T07:52:09;96357.53;;;16.45;51.97
48386;BME280;34644;47.964;7.982;2023-02-22T07:59:11;96363.63;;;16.51;52.08
48386;BME280;34644;47.964;7.982;2023-02-22T08:06:12;96348.94;;;16.59;52.11
48386;BME280;34644;47.964;7.982;2023-02-22T08:13:12;96354.78;;;16.61;52.37
48386;BME280;34644;47.964;7.982;2023-02-22T08:20:12;96348.34;;;16.67;52.38
48386;BME280;34644;47.964;7.982;2023-02-22T08:27:13;96343.19;;;16.76;52.41
48386;BME280;34644;47.964;7.982;2023-02-22T08:34:13;96344.72;;;16.87;52.34
48386;BME280;34644;47.964;7.982;2023-02-22T08:41:13;96340.94;;;16.93;52.41
48386;BME280;34644;47.964;7.982;2023-02-22T08:48:14;96335.13;;;16.91;52.77
48386;BME280;34644;47.964;7.982;2023-02-22T08:55:14;96336.72;;;16.92;52.99
48386;BME280;34644;47.964;7.982;2023-02-22T09:02:16;96344.66;;;16.97;52.96
48386;BME280;34644;47.964;7.982;2023-02-22T09:09:17;96343.75;;;17.07;52.80
48386;BME280;34644;47.964;7.982;2023-02-22T09:16:22;96339.22;;;17.08;53.05
48386;BME280;34644;47.964;7.982;2023-02-22T09:23:23;96339.91;;;17.18;52.99
48386;BME280;34644;47.964;7.982;2023-02-22T09:30:26;96336.13;;;17.25;53.10
48386;BME280;34644;47.964;7.982;2023-02-22T09:37:30;96339.00;;;17.28;53.29
48386;BME280;34644;47.964;7.982;2023-02-22T09:58:39;96333.44;;;17.49;53.27
48386;BME280;34644;47.964;7.982;2023-02-22T10:05:43;96333.16;;;17.50;53.55
48386;BME280;34644;47.964;7.982;2023-02-22T10:12:48;96328.66;;;17.51;53.59
48386;BME280;34644;47.964;7.982;2023-02-22T10:19:54;96322.09;;;17.62;53.43
48386;BME280;34644;47.964;7.982;2023-02-22T10:26:59;96315.63;;;17.68;53.46
48386;BME280;34644;47.964;7.982;2023-02-22T10:34:04;96315.44;;;17.65;53.72
48386;BME280;34644;47.964;7.982;2023-02-22T10:48:10;96308.50;;;17.64;53.86
48386;BME280;34644;47.964;7.982;2023-02-22T10:55:13;96301.22;;;17.69;53.71
48386;BME280;34644;47.964;7.982;2023-02-22T11:02:19;96307.06;;;17.71;53.96
48386;BME280;34644;47.964;7.982;2023-02-22T11:09:20;96299.00;;;17.77;53.77
48386;BME280;34644;47.964;7.982;2023-02-22T11:23:31;96273.94;;;17.78;53.93
48386;BME280;34644;47.964;7.982;2023-02-22T11:30:31;96282.94;;;17.82;53.97
48386;BME280;34644;47.964;7.982;2023-02-22T11:37:34;96274.44;;;17.80;54.14
48386;BME280;34644;47.964;7.982;2023-02-22T11:44:35;96261.19;;;17.75;54.19
48386;BME280;34644;47.964;7.982;2023-02-22T12:13:14;96239.50;;;17.62;54.10
48386;BME280;34644;47.964;7.982;2023-02-22T12:20:26;96242.75;;;17.59;54.23
48386;BME280;34644;47.964;7.982;2023-02-22T12:27:31;96242.25;;;17.57;54.23
48386;BME280;34644;47.964;7.982;2023-02-22T12:34:37;96250.53;;;17.56;54.29
48386;BME280;34644;47.964;7.982;2023-02-22T12:41:43;96243.09;;;17.52;54.44
48386;BME280;34644;47.964;7.982;2023-02-22T12:55:53;96245.03;;;17.47;54.37
48386;BME280;34644;47.964;7.982;2023-02-22T13:02:59;96254.91;;;17.46;54.56
48386;BME280;34644;47.964;7.982;2023-02-22T13:24:53;96251.28;;;17.37;54.66
48386;BME280;34644;47.964;7.982;2023-02-22T13:32:01;96253.72;;;17.33;54.69
48386;BME280;34644;47.964;7.982;2023-02-22T13:39:25;96256.97;;;17.30;54.72
48386;BME280;34644;47.964;7.982;2023-02-22T13:46:33;96250.63;;;17.26;54.78
48386;BME280;34644;47.964;7.982;2023-02-22T13:53:38;96250.91;;;17.25;54.78
48386;BME280;34644;47.964;7.982;2023-02-22T14:00:46;96252.28;;;17.22;54.79
48386;BME280;34644;47.964;7.982;2023-02-22T14:07:48;96247.22;;;17.21;54.64
48386;BME280;34644;47.964;7.982;2023-02-22T14:22:07;96252.88;;;17.14;54.79
48386;BME280;34644;47.964;7.982;2023-02-22T14:29:15;96244.97;;;17.09;55.01
48386;BME280;34644;47.964;7.982;2023-02-22T14:36:19;96243.34;;;17.08;55.05
48386;BME280;34644;47.964;7.982;2023-02-22T14:43:20;96247.13;;;17.07;54.88
48386;BME280;34644;47.964;7.982;2023-02-22T14:50:24;96255.66;;;17.04;55.01
48386;BME280;34644;47.964;7.982;2023-02-22T14:58:13;96251.97;;;16.99;55.08
48386;BME280;34644;47.964;7.982;2023-02-22T15:04:51;96253.44;;;16.87;55.23
48386;BME280;34644;47.964;7.982;2023-02-22T15:12:15;96253.19;;;16.83;55.17
48386;BME280;34644;47.964;7.982;2023-02-22T15:19:12;96251.38;;;16.78;55.40
48386;BME280;34644;47.964;7.982;2023-02-22T15:26:15;96258.84;;;16.76;55.34
48386;BME280;34644;47.964;7.982;2023-02-22T15:33:17;96254.88;;;16.74;55.25
48386;BME280;34644;47.964;7.982;2023-02-22T15:40:23;96264.41;;;16.80;55.02
48386;BME280;34644;47.964;7.982;2023-02-22T15:47:24;96266.59;;;16.73;55.19
48386;BME280;34644;47.964;7.982;2023-02-22T15:54:25;96268.25;;;16.69;55.12
48386;BME280;34644;47.964;7.982;2023-02-22T16:01:25;96270.66;;;16.65;55.06
48386;BME280;34644;47.964;7.982;2023-02-22T16:08:29;96272.03;;;16.62;55.23
48386;BME280;34644;47.964;7.982;2023-02-22T16:15:34;96282.72;;;16.57;55.21
48386;BME280;34644;47.964;7.982;2023-02-22T16:22:35;96290.16;;;16.55;55.20
48386;BME280;34644;47.964;7.982;2023-02-22T16:29:36;96297.63;;;16.53;55.18
48386;BME280;34644;47.964;7.982;2023-02-22T16:43:36;96300.34;;;16.48;55.37
48386;BME280;34644;47.964;7.982;2023-02-22T16:50:37;96301.91;;;16.49;55.24
48386;BME280;34644;47.964;7.982;2023-02-22T16:57:38;96296.03;;;16.52;55.30
48386;BME280;34644;47.964;7.982;2023-02-22T17:04:38;96297.34;;;16.55;55.46
48386;BME280;34644;47.964;7.982;2023-02-22T17:11:39;96301.63;;;16.56;55.36
48386;BME280;34644;47.964;7.982;2023-02-22T17:18:39;96309.31;;;16.57;55.33
48386;BME280;34644;47.964;7.982;2023-02-22T17:25:44;96313.81;;;16.57;55.29
48386;BME280;34644;47.964;7.982;2023-02-22T17:32:48;96313.81;;;16.57;55.40
48386;BME280;34644;47.964;7.982;2023-02-22T17:39:49;96325.56;;;16.56;55.27
48386;BME280;34644;47.964;7.982;2023-02-22T17:46:49;96324.47;;;16.57;55.39
48386;BME280;34644;47.964;7.982;2023-02-22T17:53:51;96333.81;;;16.54;55.33
48386;BME280;34644;47.964;7.982;2023-02-22T18:00:52;96328.50;;;16.54;55.40
48386;BME280;34644;47.964;7.982;2023-02-22T18:07:58;96333.00;;;16.54;55.48
48386;BME280;34644;47.964;7.982;2023-02-22T18:14:58;96336.22;;;16.51;55.44
48386;BME280;34644;47.964;7.982;2023-02-22T18:21:59;96331.66;;;16.56;55.63
48386;BME280;34644;47.964;7.982;2023-02-22T18:29:02;96335.16;;;16.52;55.59
48386;BME280;34644;47.964;7.982;2023-02-22T18:36:02;96326.38;;;16.51;55.67
48386;BME280;34644;47.964;7.982;2023-02-22T18:43:02;96324.78;;;16.50;55.70
48386;BME280;34644;47.964;7.982;2023-02-22T18:50:03;96326.13;;;16.48;55.78
48386;BME280;34644;47.964;7.982;2023-02-22T18:57:03;96324.56;;;16.46;55.65
48386;BME280;34644;47.964;7.982;2023-02-22T19:04:04;96320.56;;;16.44;55.81
48386;BME280;34644;47.964;7.982;2023-02-22T19:11:06;96320.84;;;16.42;55.81
48386;BME280;34644;47.964;7.982;2023-02-22T19:18:06;96317.41;;;16.42;55.94
48386;BME280;34644;47.964;7.982;2023-02-22T19:25:06;96316.09;;;16.39;55.93
48386;BME280;34644;47.964;7.982;2023-02-22T19:32:07;96313.44;;;16.39;56.05
48386;BME280;34644;47.964;7.982;2023-02-22T19:39:08;96324.34;;;16.38;56.00
48386;BME280;34644;47.964;7.982;2023-02-22T19:46:08;96320.13;;;16.37;56.16
48386;BME280;34644;47.964;7.982;2023-02-22T19:53:10;96321.97;;;16.36;56.32
48386;BME280;34644;47.964;7.982;2023-02-22T20:00:13;96322.25;;;16.35;56.29
48386;BME280;34644;47.964;7.982;2023-02-22T20:07:22;96315.06;;;16.35;56.41
48386;BME280;34644;47.964;7.982;2023-02-22T20:14:23;96326.78;;;16.34;56.35
48386;BME280;34644;47.964;7.982;2023-02-22T20:21:31;96325.16;;;16.33;56.54
48386;BME280;34644;47.964;7.982;2023-02-22T20:28:32;96327.03;;;16.33;56.73
48386;BME280;34644;47.964;7.982;2023-02-22T20:35:33;96326.53;;;16.31;56.86
48386;BME280;34644;47.964;7.982;2023-02-22T20:42:33;96328.38;;;16.30;56.81
48386;BME280;34644;47.964;7.982;2023-02-22T20:49:33;96330.53;;;16.28;57.00
48386;BME280;34644;47.964;7.982;2023-02-22T20:56:34;96326.28;;;16.27;56.88
48386;BME280;34644;47.964;7.982;2023-02-22T21:03:35;96326.28;;;16.27;56.91
48386;BME280;34644;47.964;7.982;2023-02-22T21:10:39;96333.19;;;16.28;56.97
48386;BME280;34644;47.964;7.982;2023-02-22T21:17:40;96332.41;;;16.27;57.01
48386;BME280;34644;47.964;7.982;2023-02-22T21:24:47;96325.50;;;16.26;57.21
48386;BME280;34644;47.964;7.982;2023-02-22T21:31:47;96325.50;;;16.26;57.25
48386;BME280;34644;47.964;7.982;2023-02-22T21:38:48;96336.91;;;16.27;57.47
48386;BME280;34644;47.964;7.982;2023-02-22T21:45:52;96328.94;;;16.27;57.55
48386;BME280;34644;47.964;7.982;2023-02-22T21:52:52;96320.19;;;16.26;57.53
48386;BME280;34644;47.964;7.982;2023-02-22T21:59:52;96319.38;;;16.26;57.48
48386;BME280;34644;47.964;7.982;2023-02-22T22:06:53;96313.25;;;16.25;57.81
48386;BME280;34644;47.964;7.982;2023-02-22T22:13:55;96311.69;;;16.24;58.05
48386;BME280;34644;47.964;7.982;2023-02-22T22:20:56;96305.28;;;16.25;57.86
48386;BME280;34644;47.964;7.982;2023-02-22T22:27:56;96311.69;;;16.24;57.91
48386;BME280;34644;47.964;7.982;2023-02-22T22:34:57;96300.25;;;16.24;57.94
48386;BME280;34644;47.964;7.982;2023-02-22T22:41:58;96305.56;;;16.24;57.89
48386;BME280;34644;47.964;7.982;2023-02-22T22:48:58;96296.78;;;16.23;57.93
48386;BME280;34644;47.964;7.982;2023-02-22T22:56:06;96299.47;;;16.23;58.23
48386;BME280;34644;47.964;7.982;2023-02-22T23:03:09;96299.47;;;16.23;58.19
48386;BME280;34644;47.964;7.982;2023-02-22T23:10:15;96293.34;;;16.23;58.31
48386;BME280;34644;47.964;7.982;2023-02-22T23:17:15;96300.50;;;16.22;58.56
48386;BME280;34644;47.964;7.982;2023-02-22T23:24:31;96293.63;;;16.21;58.38
48386;BME280;34644;47.964;7.982;2023-02-22T23:31:32;96290.19;;;16.21;58.59
48386;BME280;34644;47.964;7.982;2023-02-22T23:38:32;96296.28;;;16.21;58.84
48386;BME280;34644;47.964;7.982;2023-02-22T23:45:33;96288.31;;;16.21;58.73
48386;BME280;34644;47.964;7.982;2023-02-22T23:52:37;96292.03;;;16.20;58.96
48386;BME280;34644;47.964;7.982;2023-02-22T23:59:37;96293.91;;;16.20;59.02
